Time;durP1;ratioP1;P1;durP2;ratioP2;P2;SDS_P1;SDS_P2;PMS_P1;PMS_P2;Temp;Humidity;BMP_temperature;BMP_pressure;BME280_temperature;BME280_humidity;BME280_pressure;Samples;Min_cycle;Max_cycle;Signal;HPM_P1;HPM_P2
2021/11/06 04:47:08;;;;;;;4.70;2.58;;;8.00;99.90;;;;;;3379631;26;20421;-55
2021/11/06 04:49:33;;;;;;;6.75;3.22;;;8.00;99.90;;;;;;5064679;28;20017;-52
2021/11/06 04:51:59;;;;;;;7.70;3.08;;;8.00;99.90;;;;;;5048199;28;20486;-55
2021/11/06 04:54:24;;;;;;;7.78;3.45;;;8.00;99.90;;;;;;5066085;28;20028;-53
2021/11/06 04:56:50;;;;;;;5.50;3.80;;;8.00;99.90;;;;;;5065343;28;20085;-55
2021/11/06 04:59:16;;;;;;;4.93;3.20;;;8.00;99.90;;;;;;5065292;28;20029;-53
2021/11/06 05:01:42;;;;;;;3.47;3.08;;;8.00;99.90;;;;;;5065682;28;20486;-55
2021/11/06 05:04:07;;;;;;;9.07;4.28;;;8.00;99.90;;;;;;5064263;28;20127;-53
2021/11/06 05:06:33;;;;;;;7.22;3.40;;;8.00;99.90;;;;;;5063460;28;20058;-52
2021/11/06 05:08:59;;;;;;;10.77;3.42;;;8.00;99.90;;;;;;5064937;28;20674;-51
2021/11/06 05:11:25;;;;;;;6.45;3.88;;;8.00;99.90;;;;;;5066693;28;20111;-55
2021/11/06 05:13:50;;;;;;;4.68;3.90;;;8.00;99.90;;;;;;5066162;28;20402;-55
2021/11/06 05:16:16;;;;;;;7.78;4.32;;;8.00;99.90;;;;;;5065638;28;20036;-52
2021/11/06 05:18:42;;;;;;;7.28;3.53;;;8.00;99.90;;;;;;5066002;28;20052;-54
2021/11/06 05:21:08;;;;;;;11.70;4.68;;;8.00;99.90;;;;;;5065922;28;20038;-54
2021/11/06 05:23:33;;;;;;;7.53;4.53;;;8.00;99.90;;;;;;5048572;28;20021;-52
2021/11/06 05:25:59;;;;;;;6.60;4.03;;;8.00;99.90;;;;;;5065188;28;20058;-57
2021/11/06 05:28:25;;;;;;;11.13;4.30;;;8.00;99.90;;;;;;5064153;28;20513;-52
2021/11/06 05:30:51;;;;;;;6.53;4.85;;;8.00;99.90;;;;;;5045267;28;20051;-52
2021/11/06 05:33:16;;;;;;;10.80;5.40;;;8.00;99.90;;;;;;5066251;28;20021;-55
2021/11/06 05:35:42;;;;;;;6.55;4.53;;;8.00;99.90;;;;;;5065424;28;20020;-53
2021/11/06 05:38:08;;;;;;;5.65;4.72;;;8.00;99.90;;;;;;5064480;28;20129;-53
2021/11/06 05:40:33;;;;;;;9.00;5.40;;;8.00;99.90;;;;;;5064210;28;20090;-52
2021/11/06 05:42:59;;;;;;;10.55;5.07;;;8.00;99.90;;;;;;5064547;28;20119;-53
2021/11/06 05:45:25;;;;;;;8.07;5.38;;;7.90;99.90;;;;;;5065138;28;20117;-56
2021/11/06 05:47:51;;;;;;;8.07;5.78;;;7.90;99.90;;;;;;5047391;28;20067;-56
2021/11/06 05:50:17;;;;;;;6.80;5.47;;;7.90;99.90;;;;;;5064507;28;20107;-54
2021/11/06 05:52:44;;;;;;;6.35;5.03;;;7.90;99.90;;;;;;5045882;28;20621;-56
2021/11/06 05:55:14;;;;;;;9.55;6.25;;;7.90;99.90;;;;;;5062869;28;20029;-54
2021/11/06 05:57:41;;;;;;;8.23;4.78;;;7.80;99.90;;;;;;5045705;28;20025;-54
2021/11/06 06:00:09;;;;;;;7.10;6.28;;;7.80;99.90;;;;;;5064376;28;20024;-55
2021/11/06 06:02:35;;;;;;;7.70;5.18;;;7.80;99.90;;;;;;5064990;28;20037;-52
2021/11/06 06:05:01;;;;;;;7.30;5.60;;;7.80;99.90;;;;;;5060977;28;20116;-53
2021/11/06 06:07:27;;;;;;;10.30;5.85;;;7.80;99.90;;;;;;5060950;28;20180;-52
2021/11/06 06:09:52;;;;;;;8.05;6.03;;;7.80;99.90;;;;;;5066495;28;20020;-54
2021/11/06 06:12:18;;;;;;;12.13;5.90;;;7.80;99.90;;;;;;5068465;28;20062;-55
2021/11/06 06:14:43;;;;;;;9.80;5.65;;;7.70;99.90;;;;;;5069976;28;20021;-55
2021/11/06 06:17:09;;;;;;;10.10;6.32;;;7.70;99.90;;;;;;5068353;28;20059;-56
2021/11/06 06:19:35;;;;;;;10.45;6.03;;;7.70;99.90;;;;;;5068661;28;20044;-53
2021/11/06 06:22:00;;;;;;;8.40;6.20;;;7.70;99.90;;;;;;5068019;28;20041;-52
2021/11/06 06:24:26;;;;;;;9.85;5.75;;;7.70;99.90;;;;;;5066344;28;20097;-53
2021/11/06 06:26:51;;;;;;;9.02;6.55;;;7.70;99.90;;;;;;5069285;28;20116;-54
2021/11/06 06:29:17;;;;;;;10.63;7.38;;;7.70;99.90;;;;;;5067597;28;20044;-53
2021/11/06 06:31:43;;;;;;;8.68;5.63;;;7.70;99.90;;;;;;5069418;28;20036;-52
2021/11/06 06:34:09;;;;;;;9.15;7.20;;;7.70;99.90;;;;;;5069436;28;20035;-52
2021/11/06 06:36:35;;;;;;;8.63;6.57;;;7.70;99.90;;;;;;5068429;28;20028;-56
2021/11/06 06:39:00;;;;;;;10.05;6.55;;;7.70;99.90;;;;;;5069077;28;20076;-53
2021/11/06 06:41:27;;;;;;;10.75;7.15;;;7.70;99.90;;;;;;5066963;28;20033;-56
2021/11/06 06:43:53;;;;;;;9.75;6.57;;;7.70;99.90;;;;;;5069517;28;20017;-56
2021/11/06 06:46:19;;;;;;;8.93;6.15;;;7.70;99.90;;;;;;5066122;28;20020;-56
2021/11/06 06:48:44;;;;;;;16.73;7.18;;;7.70;99.90;;;;;;5069483;28;20039;-53
2021/11/06 06:51:10;;;;;;;10.48;6.22;;;7.70;99.90;;;;;;5048702;28;20028;-54
2021/11/06 06:53:35;;;;;;;9.65;6.82;;;7.70;99.90;;;;;;5070337;28;20032;-55
2021/11/06 06:56:01;;;;;;;6.38;5.75;;;7.70;99.90;;;;;;5068724;28;20040;-54
2021/11/06 06:58:27;;;;;;;9.52;7.03;;;7.70;99.90;;;;;;5069458;28;20043;-53
2021/11/06 07:00:52;;;;;;;8.07;6.95;;;7.80;99.90;;;;;;5069501;28;20028;-56
2021/11/06 07:03:18;;;;;;;16.35;7.53;;;7.80;99.90;;;;;;5067975;28;20085;-55
2021/11/06 07:05:43;;;;;;;9.55;7.70;;;7.80;99.90;;;;;;5067887;28;20077;-54
2021/11/06 07:08:09;;;;;;;9.38;7.70;;;7.80;99.90;;;;;;5065529;28;20063;-53
2021/11/06 07:10:35;;;;;;;9.13;7.50;;;7.80;99.90;;;;;;5067692;28;20506;-57
2021/11/06 07:13:01;;;;;;;12.40;7.80;;;7.90;99.90;;;;;;5066100;28;20036;-54
2021/11/06 07:15:27;;;;;;;11.45;8.10;;;7.80;99.90;;;;;;5068442;28;20441;-54
2021/11/06 07:17:52;;;;;;;15.55;7.78;;;7.90;99.90;;;;;;5068352;28;20024;-54
2021/11/06 07:20:20;;;;;;;11.30;8.40;;;7.90;99.90;;;;;;5068218;28;20048;-54
2021/11/06 07:22:47;;;;;;;9.85;7.60;;;7.90;99.90;;;;;;5068179;28;20021;-57
2021/11/06 07:25:13;;;;;;;12.70;8.27;;;7.90;99.90;;;;;;5065991;28;20082;-56
2021/11/06 07:27:38;;;;;;;17.90;9.52;;;8.00;99.90;;;;;;5067425;28;20042;-55
2021/11/06 07:30:09;;;;;;;14.00;10.05;;;8.00;99.90;;;;;;5067501;28;20092;-56
2021/11/06 07:32:35;;;;;;;13.10;9.25;;;8.00;99.90;;;;;;5067580;28;20021;-53
2021/11/06 07:35:01;;;;;;;10.30;8.82;;;8.00;99.90;;;;;;5067740;28;20490;-53
2021/11/06 07:37:26;;;;;;;13.43;10.10;;;8.00;99.90;;;;;;5066904;28;20063;-54
2021/11/06 07:39:52;;;;;;;17.10;10.52;;;8.00;99.90;;;;;;5067038;28;20016;-54
2021/11/06 07:42:18;;;;;;;14.13;10.70;;;8.10;99.90;;;;;;5065710;28;20441;-56
2021/11/06 07:44:43;;;;;;;15.45;11.25;;;8.10;99.90;;;;;;5065783;28;20029;-53
2021/11/06 07:47:09;;;;;;;15.85;10.80;;;8.10;99.90;;;;;;5063663;28;20058;-54
2021/11/06 07:49:34;;;;;;;21.33;11.73;;;8.10;99.90;;;;;;5065286;28;20537;-56
2021/11/06 07:52:00;;;;;;;21.15;12.50;;;8.10;99.90;;;;;;5068237;28;20510;-57
2021/11/06 07:54:27;;;;;;;15.52;11.75;;;8.20;99.90;;;;;;5068298;28;20047;-54
2021/11/06 07:56:52;;;;;;;16.08;11.70;;;8.20;99.90;;;;;;5062506;28;20028;-55
2021/11/06 07:59:18;;;;;;;17.30;10.85;;;8.30;99.90;;;;;;5062364;28;20074;-55
2021/11/06 08:01:44;;;;;;;15.63;12.10;;;8.30;99.90;;;;;;5064519;28;20056;-55
2021/11/06 08:04:10;;;;;;;25.55;13.57;;;8.30;99.90;;;;;;5064395;28;20087;-51
2021/11/06 08:06:37;;;;;;;16.08;12.60;;;8.30;99.90;;;;;;5066695;28;20031;-54
2021/11/06 08:09:03;;;;;;;23.10;13.85;;;8.30;99.90;;;;;;5065718;28;20115;-57
2021/11/06 08:11:29;;;;;;;19.08;14.20;;;8.30;99.90;;;;;;5066485;28;20048;-54
2021/11/06 08:13:54;;;;;;;17.65;13.23;;;8.30;99.90;;;;;;5065796;28;20028;-57
2021/11/06 08:16:20;;;;;;;21.40;13.98;;;8.30;99.90;;;;;;5064421;28;20028;-55
2021/11/06 08:18:46;;;;;;;17.40;14.13;;;8.40;99.90;;;;;;5064534;28;20111;-55
2021/11/06 08:21:12;;;;;;;21.45;14.68;;;8.40;99.90;;;;;;5061749;28;20028;-55
2021/11/06 08:23:37;;;;;;;23.33;15.52;;;8.40;99.90;;;;;;5064429;28;20075;-53
2021/11/06 08:26:04;;;;;;;25.30;17.50;;;8.40;99.90;;;;;;5064916;28;20491;-56
2021/11/06 08:28:30;;;;;;;27.58;17.05;;;8.50;99.90;;;;;;5064732;28;20017;-53
2021/11/06 08:30:56;;;;;;;23.38;16.80;;;8.60;99.90;;;;;;5048053;28;20446;-56
2021/11/06 08:33:21;;;;;;;23.52;17.85;;;8.60;99.90;;;;;;5065823;28;20032;-53
2021/11/06 08:35:47;;;;;;;22.67;16.52;;;8.60;99.90;;;;;;5063977;28;20042;-55
2021/11/06 08:38:13;;;;;;;25.17;18.65;;;8.60;99.90;;;;;;5064722;28;20056;-57
2021/11/06 08:40:39;;;;;;;25.98;18.65;;;8.60;99.90;;;;;;5064131;28;20048;-57
2021/11/06 08:43:05;;;;;;;26.35;18.40;;;8.60;99.90;;;;;;5048945;28;20060;-56
2021/11/06 08:45:31;;;;;;;24.02;18.25;;;8.70;99.90;;;;;;5066894;28;20055;-52
2021/11/06 08:47:56;;;;;;;23.05;18.20;;;8.70;99.90;;;;;;5050121;28;20028;-53
2021/11/06 08:50:24;;;;;;;29.08;17.70;;;8.70;99.90;;;;;;5066391;28;20028;-56
2021/11/06 08:52:52;;;;;;;25.33;18.60;;;8.70;99.90;;;;;;5067097;28;20119;-56
2021/11/06 08:55:19;;;;;;;27.83;18.92;;;8.70;99.90;;;;;;5066877;28;20040;-56
2021/11/06 08:57:44;;;;;;;26.55;19.75;;;8.70;99.90;;;;;;5066193;28;20494;-55
2021/11/06 09:00:22;;;;;;;26.67;19.52;;;8.70;99.90;;;;;;5065770;28;20036;-54
2021/11/06 09:02:47;;;;;;;25.77;19.70;;;8.70;99.90;;;;;;5066262;28;20378;-56
2021/11/06 09:05:13;;;;;;;26.85;19.70;;;8.70;99.90;;;;;;5066561;28;20040;-56
2021/11/06 09:07:40;;;;;;;25.83;20.17;;;8.80;99.90;;;;;;5066230;28;20029;-54
2021/11/06 09:10:08;;;;;;;28.80;21.55;;;8.80;99.90;;;;;;5065406;28;20109;-55
2021/11/06 09:12:34;;;;;;;28.70;21.17;;;8.80;99.90;;;;;;5065747;28;20028;-57
2021/11/06 09:15:00;;;;;;;28.23;21.58;;;8.90;99.90;;;;;;5064787;28;20151;-54
2021/11/06 09:17:26;;;;;;;24.50;19.88;;;8.90;99.90;;;;;;5063625;28;20032;-57
2021/11/06 09:19:52;;;;;;;28.50;20.70;;;8.90;99.90;;;;;;5063800;28;20052;-58
2021/11/06 09:22:18;;;;;;;25.95;21.33;;;8.90;99.90;;;;;;5066220;28;20095;-53
2021/11/06 09:24:44;;;;;;;28.00;22.45;;;8.90;99.90;;;;;;5065906;28;20064;-56
2021/11/06 09:27:11;;;;;;;26.17;20.92;;;8.90;99.90;;;;;;5064119;28;20098;-57
2021/11/06 09:29:37;;;;;;;27.77;21.08;;;8.90;99.90;;;;;;5065158;28;20031;-53
2021/11/06 09:32:02;;;;;;;29.50;22.45;;;8.90;99.90;;;;;;5064078;28;20036;-57
2021/11/06 09:34:28;;;;;;;25.60;20.88;;;8.90;99.90;;;;;;5064708;28;20662;-53
2021/11/06 09:36:56;;;;;;;28.80;22.33;;;8.90;99.90;;;;;;5063890;28;20020;-55
2021/11/06 09:39:21;;;;;;;30.60;21.92;;;9.00;99.90;;;;;;5065134;28;20429;-56
2021/11/06 09:41:47;;;;;;;31.90;23.17;;;9.00;99.90;;;;;;5065452;28;20024;-54
2021/11/06 09:44:13;;;;;;;32.47;22.77;;;9.00;99.90;;;;;;5050206;28;20074;-56
2021/11/06 09:46:39;;;;;;;28.67;21.33;;;9.10;99.90;;;;;;5068471;28;20500;-52
2021/11/06 09:49:05;;;;;;;35.22;24.20;;;9.10;99.90;;;;;;5067845;28;20086;-53
2021/11/06 09:51:30;;;;;;;29.27;23.52;;;9.10;99.90;;;;;;5070726;28;20432;-54
2021/11/06 09:53:56;;;;;;;26.02;22.52;;;9.20;99.90;;;;;;5050494;28;20055;-54
2021/11/06 09:56:27;;;;;;;32.40;23.38;;;9.20;99.90;;;;;;5068057;28;20094;-53
2021/11/06 09:58:56;;;;;;;29.58;23.13;;;9.20;99.90;;;;;;5051435;28;20386;-55
2021/11/06 10:01:22;;;;;;;32.42;23.83;;;9.30;99.90;;;;;;5067797;28;20098;-56
2021/11/06 10:03:48;;;;;;;30.65;23.15;;;9.20;99.90;;;;;;5068552;28;20481;-55
2021/11/06 10:06:22;;;;;;;29.33;23.13;;;9.30;99.90;;;;;;5067816;28;20031;-55
2021/11/06 10:08:49;;;;;;;28.02;22.33;;;9.30;99.90;;;;;;5069482;28;20067;-56
2021/11/06 10:11:17;;;;;;;31.52;23.52;;;9.30;99.90;;;;;;5066474;28;20020;-57
2021/11/06 10:14:07;;;;;;;29.50;22.38;;;9.30;99.90;;;;;;5069074;28;20028;-55
2021/11/06 10:16:32;;;;;;;30.52;22.52;;;9.30;99.90;;;;;;5048510;28;20681;-54
2021/11/06 10:19:18;;;;;;;28.58;22.85;;;9.30;99.90;;;;;;5069124;28;20024;-56
2021/11/06 10:21:50;;;;;;;30.52;23.27;;;9.30;99.90;;;;;;5068581;28;20476;-56
2021/11/06 10:24:35;;;;;;;28.30;21.83;;;9.30;99.90;;;;;;5068386;28;20175;-53
2021/11/06 10:27:13;;;;;;;30.88;23.25;;;9.40;99.90;;;;;;5067692;28;20037;-54
2021/11/06 10:29:39;;;;;;;33.70;23.83;;;9.40;99.90;;;;;;5066636;28;20083;-56
2021/11/06 10:32:06;;;;;;;28.15;22.50;;;9.40;99.90;;;;;;5065988;22;20041;-50
2021/11/06 10:34:35;;;;;;;26.60;21.42;;;9.40;99.90;;;;;;5038070;28;20379;-51
2021/11/06 10:37:11;;;;;;;28.67;22.83;;;9.40;99.90;;;;;;5037766;28;20514;-56
2021/11/06 10:39:37;;;;;;;26.58;22.98;;;9.40;99.90;;;;;;5037637;28;20389;-52
2021/11/06 10:42:15;;;;;;;31.33;23.50;;;9.40;99.90;;;;;;5033984;28;20113;-53
2021/11/06 10:44:41;;;;;;;28.92;22.52;;;9.40;99.90;;;;;;5030040;28;20032;-53
2021/11/06 10:47:13;;;;;;;30.70;22.30;;;9.40;99.90;;;;;;5026541;28;20491;-53
2021/11/06 10:49:46;;;;;;;28.30;22.17;;;9.40;99.90;;;;;;5025265;28;20029;-52
2021/11/06 10:52:14;;;;;;;33.75;24.77;;;9.40;99.90;;;;;;5025118;28;20029;-50
2021/11/06 10:55:00;;;;;;;26.73;21.67;;;9.40;99.90;;;;;;5026927;28;20029;-55
2021/11/06 10:57:27;;;;;;;30.42;22.77;;;9.40;99.90;;;;;;5027553;28;20034;-55
2021/11/06 11:00:06;;;;;;;31.33;22.75;;;9.40;99.90;;;;;;5027372;28;20021;-55
2021/11/06 11:02:32;;;;;;;30.88;23.60;;;9.50;99.90;;;;;;5028304;28;20029;-53
2021/11/06 11:04:58;;;;;;;30.80;23.52;;;9.50;99.90;;;;;;5026196;28;20034;-50
2021/11/06 11:07:23;;;;;;;30.85;23.50;;;9.50;99.90;;;;;;5028291;28;20504;-51
2021/11/06 11:09:52;;;;;;;29.35;23.00;;;9.50;99.90;;;;;;5025312;28;20021;-55
2021/11/06 11:12:18;;;;;;;28.80;21.48;;;9.50;99.90;;;;;;5026551;28;20022;-55
2021/11/06 11:15:23;;;;;;;29.10;23.23;;;9.50;99.90;;;;;;5026101;28;20036;-53
2021/11/06 11:17:49;;;;;;;30.35;22.25;;;9.50;99.90;;;;;;5026847;28;20038;-53
2021/11/06 11:20:26;;;;;;;30.63;23.83;;;9.50;99.90;;;;;;5025537;28;20045;-52
2021/11/06 11:23:22;;;;;;;31.52;23.83;;;9.50;99.90;;;;;;5025961;28;20637;-55
2021/11/06 11:25:48;;;;;;;26.98;21.60;;;9.50;99.90;;;;;;5008365;28;20052;-51
2021/11/06 11:28:14;;;;;;;28.15;22.58;;;9.50;99.90;;;;;;5025820;28;20427;-51
2021/11/06 11:30:41;;;;;;;33.55;23.77;;;9.50;99.90;;;;;;5026411;28;20148;-54
2021/11/06 11:33:08;;;;;;;29.85;24.67;;;9.50;99.90;;;;;;5028414;28;20442;-53
2021/11/06 11:35:35;;;;;;;32.72;25.15;;;9.50;99.90;;;;;;5028950;28;20030;-52
2021/11/06 11:38:02;;;;;;;33.95;22.95;;;9.50;99.90;;;;;;5028199;28;20021;-52
2021/11/06 11:40:30;;;;;;;26.58;21.67;;;9.50;99.90;;;;;;5025249;28;20033;-52
2021/11/06 11:43:31;;;;;;;29.55;22.55;;;9.50;99.90;;;;;;5027742;28;20025;-55
2021/11/06 11:46:06;;;;;;;35.75;23.30;;;9.50;99.90;;;;;;5028663;28;20024;-53
2021/11/06 11:48:32;;;;;;;34.90;24.17;;;9.50;99.90;;;;;;5026387;28;20084;-54
2021/11/06 11:50:59;;;;;;;29.58;22.83;;;9.50;99.90;;;;;;5025791;28;20553;-53
2021/11/06 11:53:31;;;;;;;32.10;24.42;;;9.50;99.90;;;;;;5026827;28;20021;-53
2021/11/06 11:56:05;;;;;;;31.80;23.30;;;9.50;99.90;;;;;;5026028;28;20029;-51
2021/11/06 11:58:44;;;;;;;32.88;23.58;;;9.50;99.90;;;;;;5025215;28;20072;-49
2021/11/06 12:01:23;;;;;;;28.05;22.25;;;9.40;99.90;;;;;;5021898;28;20064;-53
2021/11/06 12:03:50;;;;;;;29.50;22.00;;;9.50;99.90;;;;;;5026855;28;20025;-52
2021/11/06 12:06:21;;;;;;;27.85;23.05;;;9.40;99.90;;;;;;5026442;28;20037;-50
2021/11/06 12:08:48;;;;;;;30.73;23.17;;;9.40;99.90;;;;;;5025167;28;20172;-53
2021/11/06 12:11:23;;;;;;;34.85;23.10;;;9.50;99.90;;;;;;5026752;28;20026;-54
2021/11/06 12:13:51;;;;;;;31.25;22.45;;;9.40;99.90;;;;;;5025984;28;20025;-52
2021/11/06 12:16:20;;;;;;;29.63;23.20;;;9.40;99.90;;;;;;5026419;28;20075;-54
2021/11/06 12:18:47;;;;;;;29.85;22.33;;;9.40;99.90;;;;;;5008869;28;20044;-50
2021/11/06 12:21:22;;;;;;;34.10;24.38;;;9.50;99.90;;;;;;5025832;28;20025;-50
2021/11/06 12:23:51;;;;;;;26.58;22.20;;;9.50;99.90;;;;;;5027588;28;20024;-52
2021/11/06 12:26:31;;;;;;;29.80;22.55;;;9.50;99.90;;;;;;5027825;28;20036;-52
2021/11/06 12:29:06;;;;;;;29.80;21.75;;;9.40;99.90;;;;;;5027416;28;20006;-52
2021/11/06 12:31:38;;;;;;;29.75;20.25;;;9.50;99.90;;;;;;5027503;28;20021;-52
2021/11/06 12:34:06;;;;;;;29.17;21.75;;;9.50;99.90;;;;;;5027565;28;20041;-51
2021/11/06 12:36:39;;;;;;;28.90;21.55;;;9.50;99.90;;;;;;5026499;28;20101;-49
2021/11/06 12:39:05;;;;;;;27.75;21.35;;;9.50;99.90;;;;;;5027734;28;20872;-50
2021/11/06 12:41:36;;;;;;;31.73;21.30;;;9.50;99.90;;;;;;5026577;28;20195;-50
2021/11/06 12:44:04;;;;;;;31.10;21.75;;;9.50;99.90;;;;;;5026441;28;20120;-53
2021/11/06 12:46:35;;;;;;;26.90;21.98;;;9.50;99.90;;;;;;5027459;28;20040;-53
2021/11/06 12:49:08;;;;;;;32.53;21.92;;;9.50;99.90;;;;;;5026271;28;20040;-51
2021/11/06 12:51:37;;;;;;;30.08;20.77;;;9.50;99.90;;;;;;5025669;28;20021;-52
2021/11/06 12:54:09;;;;;;;28.65;20.30;;;9.50;99.90;;;;;;5025311;28;20037;-54
2021/11/06 12:56:37;;;;;;;30.00;22.48;;;9.60;99.90;;;;;;5026369;28;20036;-53
2021/11/06 12:59:14;;;;;;;28.20;21.17;;;9.60;99.90;;;;;;5025502;28;20040;-51
2021/11/06 13:01:42;;;;;;;30.80;21.00;;;9.60;99.90;;;;;;5026435;28;20021;-53
2021/11/06 13:04:14;;;;;;;27.98;19.77;;;9.60;99.90;;;;;;5024688;28;20042;-54
2021/11/06 13:06:40;;;;;;;25.92;20.30;;;9.60;99.90;;;;;;5024953;28;20022;-50
2021/11/06 13:09:17;;;;;;;23.77;19.05;;;9.60;99.90;;;;;;5025135;28;20082;-55
2021/11/06 13:11:46;;;;;;;29.63;21.10;;;9.60;99.90;;;;;;5026856;28;20036;-53
2021/11/06 13:14:24;;;;;;;29.35;20.77;;;9.50;99.90;;;;;;5025406;28;20033;-52
2021/11/06 13:17:04;;;;;;;25.98;19.27;;;9.60;99.90;;;;;;5025963;28;20598;-53
2021/11/06 13:19:53;;;;;;;24.25;18.60;;;9.60;99.90;;;;;;5030091;28;20029;-53
2021/11/06 13:22:24;;;;;;;22.50;19.77;;;9.60;99.90;;;;;;5030643;28;20111;-52
2021/11/06 13:24:59;;;;;;;24.58;18.90;;;9.60;99.90;;;;;;5031596;28;20514;-50
2021/11/06 13:27:50;;;;;;;29.55;19.63;;;9.50;99.90;;;;;;5029893;28;20037;-52
2021/11/06 13:30:21;;;;;;;26.08;20.48;;;9.60;99.90;;;;;;5029560;28;20029;-55
2021/11/06 13:33:04;;;;;;;23.65;19.85;;;9.50;99.90;;;;;;5029556;28;20036;-55
2021/11/06 13:35:34;;;;;;;27.35;19.58;;;9.60;99.90;;;;;;5028079;28;20168;-50
2021/11/06 13:38:19;;;;;;;28.00;21.88;;;9.50;99.90;;;;;;5029306;28;20462;-54
2021/11/06 13:40:58;;;;;;;27.45;20.42;;;9.50;99.90;;;;;;5029427;28;20033;-56
2021/11/06 13:43:32;;;;;;;25.80;19.23;;;9.60;99.90;;;;;;5028936;28;20091;-50
2021/11/06 13:46:07;;;;;;;25.92;19.45;;;9.50;99.90;;;;;;5029227;28;20032;-52
2021/11/06 13:48:37;;;;;;;23.95;19.10;;;9.50;99.90;;;;;;5029478;28;20506;-51
2021/11/06 13:51:15;;;;;;;23.85;20.20;;;9.50;99.90;;;;;;5029320;28;20029;-50
2021/11/06 13:53:53;;;;;;;25.77;19.83;;;9.50;99.90;;;;;;5029626;28;20495;-55
2021/11/06 13:56:19;;;;;;;23.33;20.17;;;9.50;99.90;;;;;;5029251;28;20096;-51
2021/11/06 13:58:44;;;;;;;25.08;19.77;;;9.60;99.90;;;;;;5028107;28;20060;-52
2021/11/06 14:01:10;;;;;;;22.30;18.27;;;9.50;99.90;;;;;;5028540;28;20079;-51
2021/11/06 14:03:36;;;;;;;28.08;19.52;;;9.50;99.90;;;;;;5029183;28;20017;-51
2021/11/06 14:06:01;;;;;;;22.33;18.90;;;9.50;99.90;;;;;;5028587;28;20698;-54
2021/11/06 14:08:27;;;;;;;25.55;19.15;;;9.50;99.90;;;;;;5029297;28;20030;-51
2021/11/06 14:11:03;;;;;;;22.52;19.67;;;9.50;99.90;;;;;;5028749;28;20526;-53
2021/11/06 14:13:29;;;;;;;26.48;19.58;;;9.50;99.90;;;;;;5028077;28;20037;-51
2021/11/06 14:15:55;;;;;;;21.83;18.45;;;9.50;99.90;;;;;;5030742;28;20033;-50
2021/11/06 14:18:31;;;;;;;26.10;20.10;;;9.50;99.90;;;;;;5028878;28;20053;-50
2021/11/06 14:21:00;;;;;;;26.58;20.25;;;9.50;99.90;;;;;;5030101;28;20541;-52
2021/11/06 14:23:37;;;;;;;25.77;18.73;;;9.50;99.90;;;;;;5026688;28;21992;-52
2021/11/06 14:26:24;;;;;;;24.40;18.77;;;9.50;99.90;;;;;;5029085;28;20365;-53
2021/11/06 14:28:51;;;;;;;;;;;9.50;99.90;;;;;;5030235;28;20018;-53
2021/11/06 14:31:46;;;;;;;;;;;9.50;99.90;;;;;;5027686;28;19909;-52
2021/11/06 14:34:30;;;;;;;21.92;17.60;;;9.50;99.90;;;;;;5009540;28;20337;-54
2021/11/06 14:37:00;;;;;;;24.40;18.15;;;9.40;99.90;;;;;;5028280;28;20100;-51
2021/11/06 14:39:36;;;;;;;23.77;18.00;;;9.40;99.90;;;;;;5026741;28;20575;-52
2021/11/06 14:42:02;;;;;;;24.42;17.70;;;9.40;99.90;;;;;;5023524;28;20080;-51
2021/11/06 14:44:30;;;;;;;26.85;20.48;;;9.40;99.90;;;;;;5028590;28;20416;-54
2021/11/06 14:47:12;;;;;;;24.25;18.73;;;9.40;99.90;;;;;;5028451;28;20622;-52
2021/11/06 14:49:37;;;;;;;26.38;20.75;;;9.40;99.90;;;;;;5028253;28;20021;-51
2021/11/06 14:52:11;;;;;;;22.40;17.83;;;9.40;99.90;;;;;;5025859;28;20037;-50
2021/11/06 14:54:46;;;;;;;24.13;18.20;;;9.40;99.90;;;;;;5029303;28;20116;-54
2021/11/06 14:57:21;;;;;;;25.38;18.80;;;9.40;99.90;;;;;;5027317;28;20666;-54
2021/11/06 15:00:09;;;;;;;26.33;19.80;;;9.40;99.90;;;;;;5028651;28;20096;-53
2021/11/06 15:02:36;;;;;;;24.23;19.13;;;9.40;99.90;;;;;;5027805;28;20061;-53
2021/11/06 15:05:03;;;;;;;28.92;23.35;;;9.30;99.90;;;;;;5025681;28;20115;-52
2021/11/06 15:07:32;;;;;;;25.20;20.60;;;9.30;99.90;;;;;;5028592;28;20032;-54
2021/11/06 15:09:58;;;;;;;21.65;17.55;;;9.30;99.90;;;;;;5027451;28;20499;-53
2021/11/06 15:12:23;;;;;;;24.08;18.48;;;9.30;99.90;;;;;;5027314;28;20080;-51
2021/11/06 15:14:49;;;;;;;26.48;20.92;;;9.30;99.90;;;;;;5027047;28;20450;-53
2021/11/06 15:17:15;;;;;;;21.25;17.75;;;9.30;99.90;;;;;;5027980;28;20038;-54
2021/11/06 15:19:41;;;;;;;23.08;18.55;;;9.20;99.90;;;;;;5027303;28;20408;-53
2021/11/06 15:22:09;;;;;;;22.80;19.38;;;9.20;99.90;;;;;;5026678;28;20430;-54
2021/11/06 15:24:35;;;;;;;26.23;19.65;;;9.20;99.90;;;;;;5026966;28;20390;-54
2021/11/06 15:27:01;;;;;;;24.65;17.58;;;9.20;99.90;;;;;;5024732;28;20029;-52
2021/11/06 15:29:27;;;;;;;23.13;17.25;;;9.20;99.90;;;;;;5027121;28;20021;-50
2021/11/06 15:31:54;;;;;;;19.13;15.52;;;9.20;99.90;;;;;;5026563;28;20051;-50
2021/11/06 15:34:21;;;;;;;23.00;17.00;;;9.20;99.90;;;;;;5027944;28;20025;-51
2021/11/06 15:36:47;;;;;;;21.73;14.93;;;9.10;99.90;;;;;;5026508;28;20091;-51
2021/11/06 15:39:14;;;;;;;24.38;16.13;;;9.20;99.90;;;;;;5026926;28;20030;-53
2021/11/06 15:41:40;;;;;;;17.88;14.02;;;9.10;99.90;;;;;;5026863;28;20556;-52
2021/11/06 15:44:06;;;;;;;22.88;14.73;;;9.20;99.90;;;;;;5027479;28;20030;-51
2021/11/06 15:46:31;;;;;;;20.85;15.88;;;9.20;99.90;;;;;;5026595;28;20022;-53
2021/11/06 15:48:58;;;;;;;20.67;14.57;;;9.20;99.90;;;;;;5026784;28;20025;-54
2021/11/06 15:51:36;;;;;;;18.55;14.85;;;9.20;99.90;;;;;;5023911;28;20491;-51
2021/11/06 15:54:02;;;;;;;17.55;14.48;;;9.10;99.90;;;;;;5025511;28;20044;-55
2021/11/06 15:56:28;;;;;;;15.77;13.50;;;9.10;99.90;;;;;;5025988;28;20076;-52
2021/11/06 15:58:54;;;;;;;18.60;14.38;;;9.10;99.90;;;;;;5028562;28;20124;-54
2021/11/06 16:01:20;;;;;;;18.77;14.50;;;9.20;99.90;;;;;;5027273;28;20036;-53
2021/11/06 16:03:47;;;;;;;18.52;13.93;;;9.20;99.90;;;;;;5027578;28;20487;-53
2021/11/06 16:06:12;;;;;;;19.98;13.77;;;9.20;99.90;;;;;;5024980;28;20017;-54
2021/11/06 16:08:38;;;;;;;17.20;13.73;;;9.20;99.90;;;;;;5027985;28;20501;-50
2021/11/06 16:11:04;;;;;;;19.08;13.45;;;9.20;99.90;;;;;;5027547;28;20030;-51
2021/11/06 16:13:30;;;;;;;18.85;14.13;;;9.10;99.90;;;;;;5027606;28;20036;-53
2021/11/06 16:15:59;;;;;;;18.50;13.15;;;9.10;99.90;;;;;;5026419;28;20037;-51
2021/11/06 16:18:28;;;;;;;18.45;13.25;;;9.10;99.90;;;;;;5026901;28;20033;-51
2021/11/06 16:20:55;;;;;;;15.00;13.15;;;9.10;99.90;;;;;;5025593;28;20290;-53
2021/11/06 16:23:21;;;;;;;16.35;12.38;;;9.10;99.90;;;;;;5024904;28;20039;-53
2021/11/06 16:25:48;;;;;;;17.60;12.05;;;9.10;99.90;;;;;;5026189;28;20083;-51
2021/11/06 16:28:14;;;;;;;14.70;12.10;;;9.10;99.90;;;;;;5024915;28;20034;-50
2021/11/06 16:30:40;;;;;;;14.35;12.02;;;9.10;99.90;;;;;;5026747;28;20053;-53
2021/11/06 16:33:05;;;;;;;19.60;12.40;;;9.10;99.90;;;;;;5025936;28;20691;-50
2021/11/06 16:35:31;;;;;;;16.10;12.40;;;9.10;99.90;;;;;;5025524;28;20038;-55
2021/11/06 16:37:57;;;;;;;22.70;14.07;;;9.10;99.90;;;;;;5024275;28;20034;-52
2021/11/06 16:40:23;;;;;;;16.92;12.13;;;9.10;99.90;;;;;;5023718;28;20057;-52
2021/11/06 16:42:49;;;;;;;17.70;12.75;;;9.10;99.90;;;;;;5024036;28;20103;-48
2021/11/06 16:45:14;;;;;;;19.10;13.43;;;9.10;99.90;;;;;;5025305;28;20033;-53
2021/11/06 16:47:41;;;;;;;17.20;13.30;;;9.10;99.90;;;;;;5025887;28;20563;-51
2021/11/06 16:50:07;;;;;;;14.52;12.98;;;9.10;99.90;;;;;;5026204;28;20075;-55
2021/11/06 16:52:34;;;;;;;17.10;12.93;;;9.10;99.90;;;;;;5027010;28;20033;-52
2021/11/06 16:55:01;;;;;;;15.00;11.48;;;9.10;99.90;;;;;;5025614;28;20037;-50
2021/11/06 16:57:26;;;;;;;14.65;11.60;;;9.10;99.90;;;;;;5026250;28;20301;-53
2021/11/06 16:59:52;;;;;;;16.15;11.55;;;9.10;99.90;;;;;;5026922;28;20726;-53
2021/11/06 17:02:18;;;;;;;13.48;11.73;;;9.10;99.90;;;;;;5026031;28;20038;-54
2021/11/06 17:04:44;;;;;;;14.27;11.02;;;9.10;99.90;;;;;;5024931;28;20132;-49
2021/11/06 17:07:12;;;;;;;17.42;11.52;;;9.10;99.90;;;;;;5025269;28;20121;-51
2021/11/06 17:10:02;;;;;;;14.27;11.40;;;9.10;99.90;;;;;;5024567;28;20033;-50
2021/11/06 17:12:28;;;;;;;14.45;11.20;;;9.10;99.90;;;;;;5024962;28;20037;-52
2021/11/06 17:14:53;;;;;;;14.65;10.40;;;9.10;99.90;;;;;;5026167;28;20025;-50
2021/11/06 17:17:19;;;;;;;14.88;10.88;;;9.00;99.90;;;;;;5025178;28;20064;-52
2021/11/06 17:19:45;;;;;;;13.50;10.02;;;9.10;99.90;;;;;;5025133;28;20021;-55
2021/11/06 17:22:10;;;;;;;13.52;10.25;;;9.00;99.90;;;;;;5025114;28;20038;-49
2021/11/06 17:24:36;;;;;;;13.88;11.05;;;9.10;99.90;;;;;;5025024;28;20084;-52
2021/11/06 17:27:04;;;;;;;13.55;10.10;;;9.10;99.90;;;;;;5023836;28;20029;-52
2021/11/06 17:29:30;;;;;;;14.27;10.32;;;9.10;99.90;;;;;;5023338;28;20582;-51
2021/11/06 17:31:56;;;;;;;16.05;11.10;;;9.10;99.90;;;;;;5025629;28;20022;-54
2021/11/06 17:34:22;;;;;;;15.07;10.60;;;9.00;99.90;;;;;;5025152;28;20044;-50